Time;durP1;ratioP1;P1;durP2;ratioP2;P2;SDS_P1;SDS_P2;PMS_P1;PMS_P2;Temp;Humidity;BMP_temperature;BMP_pressure;BME280_temperature;BME280_humidity;BME280_pressure;Samples;Min_cycle;Max_cycle;Signal;HPM_P1;HPM_P2
2021/03/14 00:00:35;;;;;;;3.17;0.77;;;4.80;99.90;;;;;;5010605;28;20982;-69
2021/03/14 00:03:02;;;;;;;0.77;0.77;;;4.70;99.90;;;;;;5046564;28;20991;-70
2021/03/14 00:05:28;;;;;;;0.90;0.63;;;4.60;99.90;;;;;;4981635;28;20978;-69
2021/03/14 00:07:54;;;;;;;0.80;0.80;;;4.70;99.90;;;;;;5013735;28;20476;-69
2021/03/14 00:10:20;;;;;;;0.50;0.50;;;4.60;99.90;;;;;;4998050;28;20555;-68
2021/03/14 00:12:46;;;;;;;4.47;0.80;;;4.50;99.90;;;;;;5011998;28;20463;-69
2021/03/14 00:15:12;;;;;;;0.60;0.60;;;4.50;99.90;;;;;;5018715;28;20229;-68
2021/03/14 00:17:38;;;;;;;4.80;1.53;;;4.60;99.90;;;;;;5030071;28;20233;-67
2021/03/14 00:20:05;;;;;;;1.17;0.70;;;4.60;99.90;;;;;;5009770;28;20599;-69
2021/03/14 00:22:31;;;;;;;5.60;1.17;;;4.60;99.90;;;;;;5026095;28;20224;-67
2021/03/14 00:24:57;;;;;;;1.50;0.73;;;4.60;99.90;;;;;;5032811;28;20459;-69
2021/03/14 00:27:22;;;;;;;0.73;0.73;;;4.60;99.90;;;;;;5003043;28;20237;-71
2021/03/14 00:29:48;;;;;;;0.93;0.87;;;4.60;99.90;;;;;;5010009;28;20281;-68
2021/03/14 00:32:14;;;;;;;3.10;0.47;;;4.60;99.90;;;;;;5011259;28;20275;-67
2021/03/14 00:34:39;;;;;;;1.10;0.53;;;4.60;99.90;;;;;;4995895;28;20702;-68
2021/03/14 00:37:07;;;;;;;0.70;0.70;;;4.60;99.90;;;;;;5039396;28;20223;-68
2021/03/14 00:39:33;;;;;;;0.73;0.70;;;4.60;99.90;;;;;;5032246;28;20223;-68
2021/03/14 00:41:59;;;;;;;1.00;0.90;;;4.60;99.90;;;;;;5025719;28;20455;-69
2021/03/14 00:44:25;;;;;;;1.10;0.90;;;4.60;99.90;;;;;;5049614;28;20208;-69
2021/03/14 00:46:51;;;;;;;0.97;0.80;;;4.60;99.90;;;;;;5050163;28;20996;-69
2021/03/14 00:49:23;;;;;;;1.27;1.17;;;4.60;99.90;;;;;;5033075;28;20232;-67
2021/03/14 00:51:50;;;;;;;0.90;0.87;;;4.50;99.90;;;;;;5049402;28;20266;-69
2021/03/14 00:54:15;;;;;;;1.17;0.60;;;4.50;99.90;;;;;;5034122;28;20457;-68
2021/03/14 00:56:42;;;;;;;1.90;0.83;;;4.50;99.90;;;;;;5019113;28;20525;-67
2021/03/14 00:59:09;;;;;;;0.60;0.60;;;4.50;99.90;;;;;;5013865;28;20454;-69
2021/03/14 01:01:36;;;;;;;1.33;1.10;;;4.50;99.90;;;;;;5019422;28;20452;-68
2021/03/14 01:04:02;;;;;;;1.37;0.80;;;4.50;99.90;;;;;;5030107;28;20535;-68
2021/03/14 01:06:28;;;;;;;1.80;0.80;;;4.50;99.90;;;;;;5017246;28;20980;-69
2021/03/14 01:08:54;;;;;;;1.30;0.93;;;4.40;99.90;;;;;;5011607;28;20521;-68
2021/03/14 01:11:20;;;;;;;2.87;1.00;;;4.40;99.90;;;;;;4994419;28;20532;-68
2021/03/14 01:14:08;;;;;;;1.80;0.57;;;4.40;99.90;;;;;;5021042;28;20501;-67
2021/03/14 01:16:47;;;;;;;0.60;0.60;;;4.40;99.90;;;;;;5033973;28;20830;-69
2021/03/14 01:19:13;;;;;;;1.50;1.00;;;4.40;99.90;;;;;;5015925;28;20463;-70
2021/03/14 01:21:38;;;;;;;0.60;0.60;;;4.30;99.90;;;;;;5013401;28;21014;-70
2021/03/14 01:24:04;;;;;;;1.30;0.87;;;4.30;99.90;;;;;;5018342;28;20649;-69
2021/03/14 01:26:30;;;;;;;0.90;0.70;;;4.30;99.90;;;;;;5038159;28;20586;-69
2021/03/14 01:28:56;;;;;;;3.50;1.23;;;4.30;99.90;;;;;;5040169;28;20228;-68
2021/03/14 01:31:21;;;;;;;1.20;0.93;;;4.30;99.90;;;;;;5018548;28;20225;-68
2021/03/14 01:33:47;;;;;;;1.57;0.80;;;4.30;99.90;;;;;;5025925;28;20267;-68
2021/03/14 01:36:13;;;;;;;0.90;0.70;;;4.30;99.90;;;;;;4997665;28;20221;-68
2021/03/14 01:38:38;;;;;;;3.43;0.97;;;4.20;99.90;;;;;;5015925;28;20221;-69
2021/03/14 01:41:04;;;;;;;2.80;1.37;;;4.20;99.90;;;;;;5048546;28;20239;-67
2021/03/14 01:43:35;;;;;;;0.90;0.90;;;4.20;99.90;;;;;;5014161;28;20303;-70
2021/03/14 01:46:04;;;;;;;3.10;1.07;;;4.20;99.90;;;;;;5016318;28;20238;-69
2021/03/14 01:48:32;;;;;;;1.07;0.80;;;4.20;99.90;;;;;;5047840;28;20542;-70
2021/03/14 01:50:58;;;;;;;1.20;1.10;;;4.20;99.90;;;;;;5048791;28;20485;-70
2021/03/14 01:53:24;;;;;;;0.90;0.70;;;4.30;99.90;;;;;;5031376;28;20453;-70
2021/03/14 01:55:50;;;;;;;1.40;1.23;;;4.30;99.90;;;;;;5049118;28;20463;-71
2021/03/14 01:58:18;;;;;;;2.90;1.33;;;4.30;99.90;;;;;;5048345;28;20542;-70
2021/03/14 02:00:45;;;;;;;0.90;0.90;;;4.30;99.90;;;;;;5009359;28;20363;-69
2021/03/14 02:03:10;;;;;;;1.23;1.13;;;4.30;99.90;;;;;;4995986;28;20468;-70
2021/03/14 02:05:36;;;;;;;1.20;0.93;;;4.20;99.90;;;;;;4996338;28;20813;-70
2021/03/14 02:08:02;;;;;;;3.23;0.83;;;4.20;99.90;;;;;;4995953;28;20259;-70
2021/03/14 02:10:31;;;;;;;0.80;0.80;;;4.20;99.90;;;;;;5028481;28;20460;-70
2021/03/14 02:13:14;;;;;;;0.70;0.70;;;4.20;99.90;;;;;;5028472;28;20229;-70
2021/03/14 02:16:01;;;;;;;0.90;0.83;;;4.20;99.90;;;;;;5011544;28;20513;-70
2021/03/14 02:18:28;;;;;;;1.73;0.80;;;4.20;99.90;;;;;;5010726;28;20546;-70
2021/03/14 02:20:55;;;;;;;0.80;0.80;;;4.20;99.90;;;;;;5012885;28;20456;-69
2021/03/14 02:23:38;;;;;;;1.67;0.73;;;4.20;99.90;;;;;;4999333;28;20505;-70
2021/03/14 02:26:13;;;;;;;1.03;0.63;;;4.30;99.90;;;;;;5037185;28;20487;-68
2021/03/14 02:28:40;;;;;;;1.50;0.80;;;4.30;99.90;;;;;;5047714;28;20544;-70
2021/03/14 02:31:07;;;;;;;0.93;0.83;;;4.30;99.90;;;;;;5038052;28;20472;-70
2021/03/14 02:33:37;;;;;;;1.27;0.70;;;4.30;99.90;;;;;;5012173;28;20440;-70
2021/03/14 02:36:06;;;;;;;0.80;0.80;;;4.30;99.90;;;;;;5028031;28;20578;-71
2021/03/14 02:38:33;;;;;;;1.83;1.00;;;4.30;99.90;;;;;;5002832;28;20451;-70
2021/03/14 02:41:00;;;;;;;1.43;0.70;;;4.30;99.90;;;;;;5004076;28;20448;-69
2021/03/14 02:43:27;;;;;;;1.43;0.70;;;4.20;99.90;;;;;;5017246;28;20432;-69
2021/03/14 02:45:54;;;;;;;2.97;0.70;;;4.20;99.90;;;;;;5018738;28;20455;-69
2021/03/14 02:48:20;;;;;;;4.93;0.60;;;4.20;99.90;;;;;;5020798;28;20542;-69
2021/03/14 02:50:47;;;;;;;3.90;1.00;;;4.20;99.90;;;;;;5030532;28;20454;-69
2021/03/14 02:53:15;;;;;;;1.27;0.73;;;4.20;99.90;;;;;;5020657;28;20494;-67
2021/03/14 02:55:43;;;;;;;1.07;0.83;;;4.20;99.90;;;;;;5030225;28;20969;-67
2021/03/14 02:58:11;;;;;;;1.90;0.67;;;4.20;99.90;;;;;;4987156;28;20553;-67
2021/03/14 03:00:39;;;;;;;0.77;0.60;;;4.20;99.90;;;;;;5024722;28;20462;-69
2021/03/14 03:03:06;;;;;;;0.77;0.77;;;4.20;99.90;;;;;;5011231;28;20465;-69
2021/03/14 03:05:33;;;;;;;1.03;0.63;;;4.20;99.90;;;;;;4993506;28;20455;-69
2021/03/14 03:07:59;;;;;;;0.60;0.60;;;4.20;99.90;;;;;;5024604;28;20471;-68
2021/03/14 03:10:36;;;;;;;0.40;0.40;;;4.20;99.90;;;;;;5010801;28;20447;-70
2021/03/14 03:13:03;;;;;;;1.63;1.00;;;4.20;99.90;;;;;;5005569;28;20465;-69
2021/03/14 03:15:30;;;;;;;0.93;0.50;;;4.20;99.90;;;;;;5009201;28;20467;-69
2021/03/14 03:17:58;;;;;;;0.73;0.73;;;4.20;99.90;;;;;;5022096;28;20469;-70
2021/03/14 03:20:26;;;;;;;3.53;1.10;;;4.10;99.90;;;;;;5024667;28;20434;-67
2021/03/14 03:22:52;;;;;;;1.37;0.50;;;4.10;99.90;;;;;;5006865;28;20452;-67
2021/03/14 03:25:19;;;;;;;1.00;0.83;;;4.10;99.90;;;;;;5019733;28;20464;-67
2021/03/14 03:27:45;;;;;;;0.80;0.60;;;4.00;99.90;;;;;;5021326;28;20473;-68
2021/03/14 03:30:13;;;;;;;0.70;0.70;;;4.00;99.90;;;;;;4989069;28;21006;-68
2021/03/14 03:32:40;;;;;;;0.77;0.73;;;4.00;99.90;;;;;;5007169;28;20535;-69
2021/03/14 03:35:08;;;;;;;1.57;0.47;;;4.00;99.90;;;;;;5004427;28;21000;-69
2021/03/14 03:37:34;;;;;;;0.67;0.67;;;3.90;99.90;;;;;;4995336;28;20459;-69
2021/03/14 03:40:10;;;;;;;0.90;0.60;;;3.90;99.90;;;;;;5023271;28;20462;-69
2021/03/14 03:43:00;;;;;;;0.70;0.60;;;4.00;99.90;;;;;;4995391;28;20453;-69
2021/03/14 03:45:28;;;;;;;4.63;0.70;;;4.00;99.90;;;;;;5051506;28;20461;-69
2021/03/14 03:47:56;;;;;;;1.30;0.83;;;4.00;99.90;;;;;;5034698;28;21026;-68
2021/03/14 03:50:23;;;;;;;0.60;0.40;;;4.00;99.90;;;;;;5034378;28;20455;-69
2021/03/14 03:52:51;;;;;;;1.87;0.60;;;4.00;99.90;;;;;;5034974;28;20542;-70
2021/03/14 03:55:18;;;;;;;0.47;0.47;;;3.90;99.90;;;;;;5050643;28;20462;-69
2021/03/14 03:57:45;;;;;;;0.53;0.53;;;3.90;99.90;;;;;;5051379;28;20534;-69
2021/03/14 04:00:14;;;;;;;1.63;0.70;;;3.90;99.90;;;;;;5050815;28;20869;-69
2021/03/14 04:02:41;;;;;;;0.87;0.60;;;3.90;99.90;;;;;;5034576;28;20581;-68
2021/03/14 04:05:09;;;;;;;2.60;0.83;;;3.90;99.90;;;;;;5046405;28;20952;-67
2021/03/14 04:07:39;;;;;;;0.90;0.67;;;3.90;99.90;;;;;;5023081;28;20464;-68
2021/03/14 04:10:09;;;;;;;0.50;0.50;;;3.90;99.90;;;;;;5047426;28;20508;-67
2021/03/14 04:12:37;;;;;;;0.60;0.57;;;3.90;99.90;;;;;;5023606;28;20460;-68
2021/03/14 04:15:05;;;;;;;0.87;0.50;;;3.90;99.90;;;;;;5022412;28;20459;-70
2021/03/14 04:17:31;;;;;;;1.20;0.40;;;3.80;99.90;;;;;;5031338;28;20448;-69
2021/03/14 04:20:00;;;;;;;0.53;0.53;;;3.90;99.90;;;;;;4999146;28;20513;-69
2021/03/14 04:22:27;;;;;;;0.73;0.40;;;3.80;99.90;;;;;;5008832;28;20447;-67
2021/03/14 04:24:55;;;;;;;0.60;0.60;;;3.90;99.90;;;;;;5050378;28;20458;-69
2021/03/14 04:27:21;;;;;;;0.50;0.50;;;3.80;99.90;;;;;;5030271;28;20483;-68
2021/03/14 04:29:49;;;;;;;0.80;0.60;;;3.80;99.90;;;;;;5030541;28;20455;-68
2021/03/14 04:32:15;;;;;;;0.40;0.40;;;3.80;99.90;;;;;;5013786;28;20449;-67
2021/03/14 04:34:43;;;;;;;0.60;0.60;;;3.80;99.90;;;;;;5014610;28;20463;-68
2021/03/14 04:37:09;;;;;;;0.90;0.90;;;3.80;99.90;;;;;;5023807;28;20463;-67
2021/03/14 04:39:35;;;;;;;0.70;0.67;;;3.80;99.90;;;;;;5000939;28;20467;-67
2021/03/14 04:42:01;;;;;;;1.93;0.60;;;3.70;99.90;;;;;;5010852;28;20244;-68
2021/03/14 04:44:29;;;;;;;0.40;0.40;;;3.70;99.90;;;;;;5010702;28;20461;-68
2021/03/14 04:46:55;;;;;;;0.90;0.90;;;3.70;99.90;;;;;;4993988;28;20887;-67
2021/03/14 04:49:20;;;;;;;0.63;0.63;;;3.70;99.90;;;;;;5009888;28;20463;-67
2021/03/14 04:51:47;;;;;;;0.60;0.40;;;3.70;99.90;;;;;;5014318;28;20229;-68
2021/03/14 04:54:13;;;;;;;0.70;0.70;;;3.60;99.90;;;;;;5014037;28;20222;-68
2021/03/14 04:56:40;;;;;;;0.87;0.50;;;3.60;99.90;;;;;;5030524;28;20460;-67
2021/03/14 04:59:12;;;;;;;0.73;0.73;;;3.60;99.90;;;;;;5031203;28;21015;-68
2021/03/14 05:01:43;;;;;;;0.90;0.73;;;3.60;99.90;;;;;;5031238;28;20456;-67
2021/03/14 05:04:12;;;;;;;0.40;0.37;;;3.60;99.90;;;;;;5010302;28;20465;-68
2021/03/14 05:06:43;;;;;;;0.77;0.53;;;3.60;99.90;;;;;;4978592;28;20471;-67
2021/03/14 05:09:12;;;;;;;0.63;0.60;;;3.60;99.90;;;;;;5016468;28;20475;-67
2021/03/14 05:11:40;;;;;;;0.73;0.60;;;3.60;99.90;;;;;;4998103;28;20546;-67
2021/03/14 05:14:07;;;;;;;0.70;0.67;;;3.60;99.90;;;;;;5021386;28;20451;-67
2021/03/14 05:16:33;;;;;;;0.80;0.80;;;3.60;99.90;;;;;;5041725;28;20447;-67
2021/03/14 05:19:00;;;;;;;1.03;0.87;;;3.60;99.90;;;;;;5001212;28;20455;-68
2021/03/14 05:21:26;;;;;;;0.97;0.70;;;3.60;99.90;;;;;;5006643;28;20233;-67
2021/03/14 05:23:52;;;;;;;1.13;0.90;;;3.70;99.90;;;;;;5009700;28;20451;-67
2021/03/14 05:26:19;;;;;;;1.63;1.00;;;3.70;99.90;;;;;;5014381;28;20466;-67
2021/03/14 05:28:47;;;;;;;1.60;1.30;;;3.70;99.90;;;;;;5012880;28;20610;-68
2021/03/14 05:31:37;;;;;;;1.93;1.00;;;3.70;99.90;;;;;;5029091;28;20459;-68
2021/03/14 05:34:06;;;;;;;0.90;0.80;;;3.70;99.90;;;;;;5014547;28;20459;-68
2021/03/14 05:36:33;;;;;;;1.03;0.90;;;3.70;99.90;;;;;;5016043;28;20459;-69
2021/03/14 05:38:59;;;;;;;5.60;1.03;;;3.60;99.90;;;;;;5037937;28;20462;-68
2021/03/14 05:41:26;;;;;;;4.00;0.90;;;3.60;99.90;;;;;;5015701;28;21002;-68
2021/03/14 05:43:53;;;;;;;1.47;1.03;;;3.60;99.90;;;;;;5016249;28;20463;-67
2021/03/14 05:46:19;;;;;;;0.80;0.80;;;3.60;99.90;;;;;;5032640;28;20466;-67
2021/03/14 05:48:46;;;;;;;1.03;0.93;;;3.60;99.90;;;;;;5015961;28;20848;-67
2021/03/14 05:51:25;;;;;;;1.60;1.50;;;3.60;99.90;;;;;;5050070;28;20487;-68
2021/03/14 05:53:52;;;;;;;1.67;0.97;;;3.50;99.90;;;;;;5049527;28;20546;-67
2021/03/14 05:56:19;;;;;;;1.37;0.80;;;3.60;99.90;;;;;;5048945;28;21375;-69
2021/03/14 05:58:46;;;;;;;3.87;0.90;;;3.60;99.90;;;;;;5048653;28;20451;-66
2021/03/14 06:01:15;;;;;;;1.40;1.03;;;3.60;99.90;;;;;;5048470;28;20497;-68
2021/03/14 06:03:41;;;;;;;1.30;1.20;;;3.50;99.90;;;;;;5016594;28;20466;-68
2021/03/14 06:06:08;;;;;;;2.07;1.73;;;3.50;99.90;;;;;;5031143;28;20456;-67
2021/03/14 06:08:34;;;;;;;1.80;1.10;;;3.50;99.90;;;;;;5011567;28;20468;-68
2021/03/14 06:11:01;;;;;;;1.63;1.40;;;3.50;99.90;;;;;;5009572;28;20879;-69
2021/03/14 06:13:27;;;;;;;2.53;2.30;;;3.50;99.90;;;;;;5024392;28;20309;-67
2021/03/14 06:15:53;;;;;;;4.60;2.80;;;3.50;99.90;;;;;;5024363;28;20456;-67
2021/03/14 06:18:19;;;;;;;2.97;2.00;;;3.50;99.90;;;;;;4990638;28;20461;-66
2021/03/14 06:20:45;;;;;;;1.67;1.57;;;3.60;99.90;;;;;;5019531;28;20275;-69
2021/03/14 06:23:52;;;;;;;4.87;2.80;;;3.60;99.90;;;;;;4990780;28;20460;-66
2021/03/14 06:26:18;;;;;;;5.73;3.20;;;3.70;99.90;;;;;;5022411;28;20218;-67
2021/03/14 06:28:54;;;;;;;4.37;3.30;;;3.70;99.90;;;;;;4996231;28;20468;-68
2021/03/14 06:31:21;;;;;;;3.80;2.67;;;3.80;99.90;;;;;;4995038;28;20334;-68
2021/03/14 06:33:47;;;;;;;2.00;1.80;;;3.80;99.90;;;;;;5028195;28;20578;-67
2021/03/14 06:36:22;;;;;;;1.93;1.50;;;3.90;99.90;;;;;;5014133;28;20503;-69
2021/03/14 06:38:50;;;;;;;2.00;1.57;;;3.90;99.90;;;;;;5015380;28;20227;-69
2021/03/14 06:41:19;;;;;;;1.53;1.30;;;3.90;99.90;;;;;;5047816;28;20447;-69
2021/03/14 06:43:58;;;;;;;1.57;1.03;;;4.00;99.90;;;;;;5048660;28;20847;-69
2021/03/14 06:46:30;;;;;;;1.17;1.07;;;4.00;99.90;;;;;;5015335;28;20603;-69
2021/03/14 06:49:11;;;;;;;2.10;1.60;;;4.10;99.90;;;;;;5048571;28;20455;-69
2021/03/14 06:51:41;;;;;;;1.30;1.20;;;4.10;99.90;;;;;;5016063;28;20447;-70
2021/03/14 06:54:29;;;;;;;2.43;1.63;;;4.10;99.90;;;;;;5031486;28;20972;-69
2021/03/14 06:57:01;;;;;;;2.60;1.47;;;4.10;99.90;;;;;;5032134;28;20874;-69
2021/03/14 06:59:28;;;;;;;1.83;1.57;;;4.10;99.90;;;;;;5047723;28;20431;-70
2021/03/14 07:02:08;;;;;;;1.97;1.77;;;4.10;99.90;;;;;;5032074;28;20509;-69
2021/03/14 07:04:35;;;;;;;7.10;2.40;;;4.10;99.90;;;;;;5031863;28;20455;-67
2021/03/14 07:07:01;;;;;;;2.57;2.37;;;4.10;99.90;;;;;;5048309;28;20474;-70
2021/03/14 07:09:26;;;;;;;10.20;4.83;;;4.20;99.90;;;;;;5014519;28;20516;-69
2021/03/14 07:11:52;;;;;;;12.50;7.60;;;4.20;99.90;;;;;;5045147;28;20456;-69
2021/03/14 07:14:20;;;;;;;11.10;8.50;;;4.10;99.90;;;;;;5026987;28;20218;-69
2021/03/14 07:17:03;;;;;;;10.17;6.30;;;4.20;99.90;;;;;;5011924;28;20222;-69
2021/03/14 07:19:31;;;;;;;4.80;3.70;;;4.20;99.90;;;;;;4998674;28;20446;-69
2021/03/14 07:22:11;;;;;;;1.90;1.67;;;4.20;99.90;;;;;;5026328;28;20455;-69
2021/03/14 07:24:39;;;;;;;1.97;0.90;;;4.20;99.90;;;;;;5024994;28;20487;-69
2021/03/14 07:27:10;;;;;;;3.47;1.30;;;4.20;99.90;;;;;;5015378;28;20498;-69
2021/03/14 07:29:36;;;;;;;3.33;1.93;;;4.20;99.90;;;;;;5006512;28;20460;-69
2021/03/14 07:32:04;;;;;;;3.07;1.50;;;4.20;99.90;;;;;;4996034;28;20515;-69
2021/03/14 07:34:30;;;;;;;1.93;1.67;;;4.20;99.90;;;;;;5011986;28;20313;-67
2021/03/14 07:36:56;;;;;;;2.20;1.97;;;4.30;99.90;;;;;;5015772;28;20481;-67
2021/03/14 07:39:22;;;;;;;2.67;1.70;;;4.30;99.90;;;;;;5034500;28;20478;-69
2021/03/14 07:41:49;;;;;;;1.57;1.17;;;4.40;99.90;;;;;;5049691;28;20278;-67
2021/03/14 07:44:22;;;;;;;1.47;1.07;;;4.40;99.90;;;;;;4980608;28;20449;-68
2021/03/14 07:46:50;;;;;;;3.43;1.60;;;4.50;99.90;;;;;;4995963;28;20568;-68
2021/03/14 07:49:19;;;;;;;1.00;0.90;;;4.50;99.90;;;;;;4994970;28;20478;-68
2021/03/14 07:51:50;;;;;;;1.90;1.50;;;4.50;99.90;;;;;;4995576;28;20457;-70
2021/03/14 07:54:26;;;;;;;0.77;0.77;;;4.60;99.90;;;;;;4995422;28;20464;-70
2021/03/14 07:56:56;;;;;;;4.10;1.50;;;4.50;99.90;;;;;;4995818;28;20513;-70
2021/03/14 07:59:29;;;;;;;1.60;1.50;;;4.60;99.90;;;;;;4998123;28;20447;-70
2021/03/14 08:02:21;;;;;;;2.50;1.40;;;4.60;99.90;;;;;;5015016;28;20915;-67
2021/03/14 08:05:01;;;;;;;3.67;2.23;;;4.60;99.90;;;;;;5031410;28;20471;-70
2021/03/14 08:07:46;;;;;;;1.90;1.60;;;4.60;99.90;;;;;;4997334;28;20462;-68
2021/03/14 08:10:36;;;;;;;2.93;1.83;;;4.60;99.90;;;;;;5014017;28;20844;-69
2021/03/14 08:13:04;;;;;;;1.30;1.20;;;4.60;99.90;;;;;;5014405;28;20459;-68
2021/03/14 08:15:32;;;;;;;1.60;1.50;;;4.70;99.90;;;;;;5002389;28;20445;-69
2021/03/14 08:18:00;;;;;;;1.57;1.47;;;4.70;99.90;;;;;;5027118;28;20467;-67
2021/03/14 08:20:41;;;;;;;1.40;1.30;;;4.80;99.90;;;;;;5045770;28;20435;-68
2021/03/14 08:23:09;;;;;;;4.73;1.40;;;4.80;99.90;;;;;;5033383;28;20455;-68
2021/03/14 08:25:44;;;;;;;0.80;0.80;;;4.90;99.90;;;;;;5027753;28;20480;-68
2021/03/14 08:28:30;;;;;;;1.67;1.37;;;4.90;99.90;;;;;;4995191;28;20499;-67
2021/03/14 08:31:04;;;;;;;2.10;1.77;;;5.00;99.90;;;;;;4996221;28;20471;-68
2021/03/14 08:33:40;;;;;;;2.33;1.60;;;5.10;99.90;;;;;;5010394;28;20458;-70
2021/03/14 08:36:15;;;;;;;2.70;1.73;;;5.20;99.90;;;;;;5024629;28;20461;-70
2021/03/14 08:38:41;;;;;;;2.57;1.47;;;5.30;99.90;;;;;;5026240;28;20470;-71
2021/03/14 08:41:23;;;;;;;1.23;1.03;;;5.30;99.90;;;;;;5026287;28;20471;-70
2021/03/14 08:44:12;;;;;;;2.10;1.60;;;5.30;99.90;;;;;;5011391;28;20466;-69
2021/03/14 08:50:03;;;;;;;1.97;0.83;;;5.40;99.90;;;;;;5042547;28;20494;-69
2021/03/14 08:52:39;;;;;;;0.70;0.70;;;5.40;99.90;;;;;;5032333;28;20442;-70
2021/03/14 08:55:16;;;;;;;1.97;1.27;;;5.40;99.90;;;;;;5000330;28;20452;-70
2021/03/14 08:57:41;;;;;;;2.93;1.07;;;5.50;99.90;;;;;;4995354;28;20453;-71
2021/03/14 09:00:14;;;;;;;1.67;1.50;;;5.50;99.90;;;;;;4997494;28;20224;-69
2021/03/14 09:02:46;;;;;;;1.33;1.03;;;5.50;99.90;;;;;;5029859;28;21041;-69
2021/03/14 09:05:21;;;;;;;1.07;0.90;;;5.50;99.90;;;;;;5025062;28;20448;-70
2021/03/14 09:08:01;;;;;;;0.73;0.73;;;5.50;99.90;;;;;;5018599;28;20464;-69
2021/03/14 09:10:51;;;;;;;4.30;1.17;;;5.60;99.90;;;;;;4978998;28;20982;-71
2021/03/14 09:13:29;;;;;;;3.63;1.30;;;5.60;99.90;;;;;;5027694;28;20501;-70
2021/03/14 09:16:14;;;;;;;0.80;0.80;;;5.60;99.90;;;;;;5028681;28;20825;-71
2021/03/14 09:18:51;;;;;;;1.27;1.17;;;5.60;99.90;;;;;;4991674;28;20439;-71
2021/03/14 09:21:19;;;;;;;1.50;1.40;;;5.70;99.90;;;;;;5032189;28;20484;-70
2021/03/14 09:23:51;;;;;;;1.47;1.37;;;5.70;99.90;;;;;;5000365;28;20468;-71
2021/03/14 09:26:28;;;;;;;4.53;1.20;;;5.70;99.90;;;;;;4992493;28;20480;-69
2021/03/14 09:28:58;;;;;;;2.73;1.20;;;5.70;99.90;;;;;;5014947;28;20534;-69
2021/03/14 09:31:26;;;;;;;3.90;1.53;;;5.80;99.90;;;;;;4996868;28;20454;-70
2021/03/14 09:33:59;;;;;;;3.03;2.37;;;5.80;99.90;;;;;;5005353;28;20491;-71
2021/03/14 09:36:30;;;;;;;0.80;0.80;;;5.80;99.90;;;;;;4979839;28;20449;-70
2021/03/14 09:39:01;;;;;;;1.70;1.40;;;5.90;99.90;;;;;;4975792;28;20449;-71
2021/03/14 09:41:55;;;;;;;1.90;1.80;;;6.00;99.90;;;;;;5002456;28;20868;-70
2021/03/14 09:44:41;;;;;;;4.03;3.47;;;6.10;99.90;;;;;;5000827;28;20471;-71
2021/03/14 09:47:13;;;;;;;2.77;2.57;;;6.20;99.90;;;;;;4991789;28;20490;-70
2021/03/14 09:50:19;;;;;;;3.03;2.47;;;6.30;99.90;;;;;;5014632;28;20543;-69
2021/03/14 09:52:49;;;;;;;2.20;1.50;;;6.30;99.90;;;;;;5012045;28;20990;-70
2021/03/14 09:55:27;;;;;;;1.43;1.30;;;6.40;99.90;;;;;;5012789;28;20958;-70
2021/03/14 09:57:53;;;;;;;1.90;1.70;;;6.50;99.90;;;;;;5013494;28;20456;-69
2021/03/14 10:00:29;;;;;;;1.97;1.53;;;6.50;99.90;;;;;;5012406;28;20526;-70
2021/03/14 10:03:08;;;;;;;1.30;1.20;;;6.50;99.90;;;;;;5007246;28;20520;-69
2021/03/14 10:05:58;;;;;;;3.37;1.33;;;6.60;99.90;;;;;;5026426;28;20467;-69
2021/03/14 10:08:36;;;;;;;1.63;0.90;;;6.60;99.90;;;;;;5009901;28;20506;-69
2021/03/14 10:11:15;;;;;;;1.40;1.30;;;6.60;99.90;;;;;;5009418;28;20447;-71
2021/03/14 10:13:47;;;;;;;6.33;1.67;;;6.70;99.90;;;;;;4992099;28;21029;-70
2021/03/14 10:16:16;;;;;;;1.70;1.60;;;6.60;99.90;;;;;;4993223;28;20466;-68
2021/03/14 10:18:45;;;;;;;1.00;0.90;;;6.60;99.90;;;;;;5020754;28;20459;-68
2021/03/14 10:21:14;;;;;;;1.87;1.60;;;6.70;99.90;;;;;;5014637;28;20459;-69
2021/03/14 10:23:42;;;;;;;2.43;1.20;;;6.60;99.90;;;;;;5014185;28;20549;-69
2021/03/14 10:26:21;;;;;;;2.43;1.10;;;6.60;99.90;;;;;;5027895;28;20456;-68
2021/03/14 10:28:57;;;;;;;2.13;1.53;;;6.60;99.90;;;;;;4989456;28;20469;-71
2021/03/14 10:31:38;;;;;;;3.73;1.63;;;6.70;99.90;;;;;;5006899;28;20832;-70
2021/03/14 10:34:11;;;;;;;3.00;1.20;;;6.70;99.90;;;;;;5010530;28;20456;-70
2021/03/14 10:36:37;;;;;;;2.40;1.00;;;6.60;99.90;;;;;;4992062;28;20521;-71
2021/03/14 10:39:07;;;;;;;1.63;0.90;;;6.60;99.90;;;;;;5017247;28;20210;-70
2021/03/14 10:41:47;;;;;;;3.53;1.87;;;6.60;99.90;;;;;;5006963;28;20454;-70
2021/03/14 10:44:22;;;;;;;1.73;1.63;;;6.60;99.90;;;;;;5003542;28;20451;-69
2021/03/14 10:47:13;;;;;;;1.50;1.20;;;6.60;99.90;;;;;;5009574;28;20463;-69
2021/03/14 10:49:38;;;;;;;4.07;1.00;;;6.60;99.90;;;;;;5004347;28;20539;-69
2021/03/14 10:52:13;;;;;;;7.00;1.27;;;6.50;99.90;;;;;;4990267;28;20471;-71
2021/03/14 10:54:40;;;;;;;1.57;1.10;;;6.50;99.90;;;;;;4994274;28;20441;-69
2021/03/14 10:57:15;;;;;;;1.80;1.30;;;6.40;99.90;;;;;;5010000;28;20459;-70
2021/03/14 10:59:45;;;;;;;1.73;0.90;;;6.40;99.90;;;;;;5006685;28;20473;-70
2021/03/14 11:02:33;;;;;;;1.33;1.17;;;6.30;99.90;;;;;;5006497;28;20472;-70
2021/03/14 11:04:59;;;;;;;1.23;1.13;;;6.30;99.90;;;;;;5005467;28;20461;-67
2021/03/14 11:07:34;;;;;;;3.40;1.63;;;6.30;99.90;;;;;;5017679;28;20472;-68
2021/03/14 11:10:24;;;;;;;7.23;1.10;;;6.30;99.90;;;;;;5005889;28;20499;-69
2021/03/14 11:13:15;;;;;;;1.60;1.50;;;6.30;99.90;;;;;;5017257;28;20547;-68
2021/03/14 11:15:41;;;;;;;1.43;1.33;;;6.20;99.90;;;;;;4991065;28;20462;-68
2021/03/14 11:18:21;;;;;;;1.27;1.17;;;6.30;99.90;;;;;;4982467;28;20461;-68
2021/03/14 11:21:07;;;;;;;6.00;2.50;;;6.30;99.90;;;;;;5005466;28;20479;-68
2021/03/14 11:23:36;;;;;;;4.00;3.00;;;6.30;99.90;;;;;;4986386;28;20533;-68
2021/03/14 11:26:02;;;;;;;3.20;2.10;;;6.30;99.90;;;;;;4987696;28;20468;-68
2021/03/14 11:28:28;;;;;;;3.77;2.57;;;6.30;99.90;;;;;;5002321;28;21139;-68
2021/03/14 11:30:55;;;;;;;1.87;1.73;;;6.30;99.90;;;;;;4987140;28;20973;-68
2021/03/14 11:33:23;;;;;;;6.93;3.20;;;6.20;99.90;;;;;;4984057;28;21171;-68
2021/03/14 11:35:55;;;;;;;9.40;4.10;;;6.20;99.90;;;;;;5003915;28;20452;-69
2021/03/14 11:38:39;;;;;;;5.80;3.77;;;6.30;99.90;;;;;;5008240;28;20938;-69
2021/03/14 11:41:23;;;;;;;6.90;3.73;;;6.30;99.90;;;;;;4991246;28;20498;-68
2021/03/14 11:44:15;;;;;;;4.00;2.83;;;6.40;99.90;;;;;;4999735;28;20460;-68
2021/03/14 11:46:42;;;;;;;2.97;1.77;;;6.40;99.90;;;;;;5022324;28;20463;-68
2021/03/14 11:49:18;;;;;;;5.30;2.60;;;6.40;99.90;;;;;;5018628;28;20799;-68
2021/03/14 11:51:44;;;;;;;2.77;1.83;;;6.50;99.90;;;;;;4984858;28;20467;-70
2021/03/14 11:54:16;;;;;;;2.87;2.33;;;6.50;99.90;;;;;;4987523;28;20861;-70
2021/03/14 11:56:45;;;;;;;3.43;2.27;;;6.50;99.90;;;;;;4987934;28;20441;-70
2021/03/14 11:59:11;;;;;;;2.07;1.73;;;6.60;99.90;;;;;;5021640;28;20444;-68
2021/03/14 12:02:01;;;;;;;2.00;1.47;;;6.70;99.90;;;;;;4998786;28;20514;-69
2021/03/14 12:04:39;;;;;;;1.33;1.23;;;6.80;99.90;;;;;;4994077;28;20452;-70
2021/03/14 12:07:05;;;;;;;2.57;1.27;;;6.90;99.90;;;;;;5023354;28;21026;-69
2021/03/14 12:09:34;;;;;;;2.27;1.73;;;7.00;99.90;;;;;;5025424;28;20533;-69
2021/03/14 12:12:03;;;;;;;2.00;1.77;;;7.00;99.90;;;;;;4991366;28;20484;-71
2021/03/14 12:14:30;;;;;;;2.50;2.17;;;7.20;99.90;;;;;;5026702;28;20217;-69
2021/03/14 12:17:00;;;;;;;2.90;2.20;;;7.20;99.90;;;;;;5014576;28;20462;-69
2021/03/14 12:19:40;;;;;;;5.27;2.50;;;7.30;99.90;;;;;;5000847;28;20460;-70
2021/03/14 12:22:07;;;;;;;4.73;1.93;;;7.30;99.90;;;;;;5010803;28;20455;-70
2021/03/14 12:24:33;;;;;;;2.50;1.90;;;7.30;99.90;;;;;;5034127;28;20212;-70
2021/03/14 12:26:59;;;;;;;5.70;2.50;;;7.30;99.90;;;;;;4999141;28;20499;-70
2021/03/14 12:29:28;;;;;;;2.97;2.20;;;7.40;99.90;;;;;;4991806;28;20224;-70
2021/03/14 12:32:00;;;;;;;7.07;2.97;;;7.40;99.90;;;;;;5013791;28;20464;-70
2021/03/14 12:34:26;;;;;;;6.60;3.20;;;7.40;99.90;;;;;;4993455;28;20447;-71
2021/03/14 12:36:56;;;;;;;3.17;2.03;;;7.40;99.90;;;;;;5011721;28;20452;-69
2021/03/14 12:39:31;;;;;;;4.87;2.63;;;7.40;99.90;;;;;;5012443;28;20519;-70
2021/03/14 12:41:57;;;;;;;5.23;2.80;;;7.40;99.90;;;;;;4993259;28;20551;-69
2021/03/14 12:44:23;;;;;;;6.27;3.70;;;7.40;99.90;;;;;;5005712;28;20776;-68
2021/03/14 12:46:49;;;;;;;9.27;4.77;;;7.40;99.90;;;;;;4983039;28;20217;-70
2021/03/14 12:49:15;;;;;;;6.20;3.70;;;7.40;99.90;;;;;;5016204;28;20312;-70
2021/03/14 12:51:41;;;;;;;7.50;3.80;;;7.40;99.90;;;;;;5002463;28;20536;-70
2021/03/14 12:54:11;;;;;;;5.87;3.30;;;7.40;99.90;;;;;;5004480;28;20209;-69
2021/03/14 12:56:37;;;;;;;21.47;6.97;;;7.30;99.90;;;;;;5012969;28;20497;-70
2021/03/14 12:59:06;;;;;;;23.10;8.90;;;7.30;99.90;;;;;;5012799;28;20510;-70
2021/03/14 13:01:34;;;;;;;14.60;10.83;;;7.30;99.90;;;;;;5005411;28;20977;-70
2021/03/14 13:03:59;;;;;;;12.73;5.70;;;7.30;99.90;;;;;;5012804;28;20444;-69
2021/03/14 13:06:27;;;;;;;8.03;5.73;;;7.30;99.90;;;;;;5030032;28;20217;-70
2021/03/14 13:08:53;;;;;;;9.17;4.60;;;7.30;99.90;;;;;;4989628;28;20222;-70
2021/03/14 13:11:19;;;;;;;14.90;5.73;;;7.30;99.90;;;;;;4993249;28;20459;-70
2021/03/14 13:13:44;;;;;;;7.80;3.97;;;7.20;99.90;;;;;;5029201;28;20459;-70
2021/03/14 13:16:10;;;;;;;16.53;6.23;;;7.20;99.90;;;;;;5012423;28;20268;-70
2021/03/14 13:18:36;;;;;;;17.47;7.30;;;7.10;99.90;;;;;;5001656;28;20293;-70